createdAt,value
2018-10-11T00:01:28.130Z,84.90
2018-10-11T00:03:55.661Z,84.70
2018-10-11T00:06:23.150Z,84.60
2018-10-11T00:08:50.651Z,84.60
2018-10-11T00:11:18.166Z,84.60
2018-10-11T00:13:45.669Z,84.40
2018-10-11T00:16:13.150Z,84.40
2018-10-11T00:18:40.676Z,84.50
2018-10-11T00:21:08.169Z,84.60
2018-10-11T00:23:35.805Z,84.90
2018-10-11T00:26:03.302Z,85.00
2018-10-11T00:28:30.811Z,85.30
2018-10-11T00:30:58.302Z,85.50
2018-10-11T00:33:25.802Z,85.50
2018-10-11T00:35:53.294Z,85.50
2018-10-11T00:38:20.802Z,85.70
2018-10-11T00:40:48.299Z,85.80
2018-10-11T00:43:15.818Z,85.60
2018-10-11T00:45:43.337Z,85.70
2018-10-11T00:48:10.858Z,85.60
2018-10-11T00:50:38.370Z,85.60
2018-10-11T00:53:05.886Z,85.50
2018-10-11T00:55:33.403Z,85.40
2018-10-11T00:58:00.921Z,85.10
2018-10-11T01:00:28.445Z,85.20
2018-10-11T01:02:55.962Z,85.30
2018-10-11T01:05:23.486Z,85.30
2018-10-11T01:07:50.997Z,85.40
2018-10-11T01:10:18.519Z,85.60
2018-10-11T01:12:46.286Z,85.70
2018-10-11T01:15:13.794Z,85.50
2018-10-11T01:17:41.330Z,86.20
2018-10-11T01:20:08.971Z,85.40
2018-10-11T01:22:36.474Z,85.50
2018-10-11T01:25:04.028Z,85.60
2018-10-11T01:27:31.542Z,85.80
2018-10-11T01:29:59.084Z,85.80
2018-10-11T01:32:26.588Z,85.90
2018-10-11T01:34:54.110Z,85.90
2018-10-11T01:37:22.432Z,85.90
2018-10-11T01:39:49.962Z,85.90
2018-10-11T01:42:17.469Z,85.90
2018-10-11T01:44:45.028Z,85.90
2018-10-11T01:47:12.563Z,86.30
2018-10-11T01:49:40.126Z,86.40
2018-10-11T01:52:07.652Z,86.50
2018-10-11T01:54:35.198Z,86.60
2018-10-11T01:57:02.710Z,86.60
2018-10-11T01:59:30.234Z,86.40
2018-10-11T02:01:57.751Z,86.40
2018-10-11T02:04:25.314Z,86.20
2018-10-11T02:06:52.849Z,86.00
2018-10-11T02:09:20.375Z,86.20
2018-10-11T02:11:47.881Z,86.30
2018-10-11T02:14:15.398Z,86.10
2018-10-11T02:16:42.922Z,86.10
2018-10-11T02:19:10.437Z,86.10
2018-10-11T02:21:37.947Z,86.30
2018-10-11T02:24:06.066Z,86.50
2018-10-11T02:26:33.583Z,87.30
2018-10-11T02:29:01.091Z,86.60
2018-10-11T02:31:28.591Z,87.60
2018-10-11T02:33:56.108Z,86.90
2018-10-11T02:36:23.623Z,87.00
2018-10-11T02:38:51.134Z,87.00
2018-10-11T02:41:18.637Z,87.10
2018-10-11T02:43:46.146Z,87.20
2018-10-11T02:46:13.634Z,87.40
2018-10-11T02:48:41.130Z,87.50
2018-10-11T02:51:08.622Z,87.40
2018-10-11T02:53:36.150Z,87.60
2018-10-11T02:56:04.123Z,87.60
2018-10-11T02:58:49.369Z,87.60
2018-10-11T03:01:17.408Z,88.00
2018-10-11T03:03:44.938Z,87.80
2018-10-11T03:06:12.438Z,87.70
2018-10-11T03:08:39.938Z,87.50
2018-10-11T03:11:07.450Z,87.50
2018-10-11T03:13:34.967Z,87.70
2018-10-11T03:16:02.459Z,87.80
2018-10-11T03:18:29.954Z,87.80
2018-10-11T03:20:57.448Z,87.90
2018-10-11T03:23:24.942Z,87.80
2018-10-11T03:25:52.434Z,87.90
2018-10-11T03:28:19.923Z,88.10
2018-10-11T03:30:47.421Z,88.20
2018-10-11T03:33:15.122Z,88.10
2018-10-11T03:35:43.514Z,87.90
2018-10-11T03:38:11.167Z,87.80
2018-10-11T03:40:38.687Z,87.80
2018-10-11T03:43:06.174Z,87.80
2018-10-11T03:45:33.673Z,87.90
2018-10-11T03:48:01.183Z,88.10
2018-10-11T03:50:28.683Z,88.00
2018-10-11T03:52:57.133Z,88.10
2018-10-11T03:55:24.906Z,88.10
2018-10-11T03:57:52.403Z,88.00
2018-10-11T04:00:19.914Z,87.90
2018-10-11T04:02:47.404Z,88.20
2018-10-11T04:05:14.906Z,88.30
2018-10-11T04:07:42.393Z,88.30
2018-10-11T04:10:09.902Z,88.40
2018-10-11T04:12:37.407Z,88.50
2018-10-11T04:15:04.914Z,88.20
2018-10-11T04:17:32.410Z,88.00
2018-10-11T04:19:59.915Z,88.00
2018-10-11T04:22:27.415Z,88.00
2018-10-11T04:24:54.938Z,88.20
2018-10-11T04:27:22.436Z,88.10
2018-10-11T04:29:49.927Z,88.40
2018-10-11T04:32:17.438Z,88.40
2018-10-11T04:34:44.935Z,88.50
2018-10-11T04:37:12.430Z,88.40
2018-10-11T04:39:40.170Z,88.70
2018-10-11T04:42:07.929Z,88.80
2018-10-11T04:44:36.021Z,88.80
2018-10-11T04:47:04.787Z,88.90
2018-10-11T04:49:32.565Z,89.00
2018-10-11T04:52:00.083Z,88.90
2018-10-11T04:54:27.594Z,90.00
2018-10-11T04:56:55.104Z,89.70
2018-10-11T04:59:22.629Z,89.80
2018-10-11T05:01:50.135Z,90.00
2018-10-11T05:04:17.703Z,90.00
2018-10-11T05:06:45.207Z,90.10
2018-10-11T05:09:12.714Z,90.20
2018-10-11T05:11:41.213Z,90.30
2018-10-11T05:14:10.638Z,90.30
2018-10-11T05:16:38.154Z,90.30
2018-10-11T05:19:05.935Z,90.20
2018-10-11T05:21:33.551Z,90.20
2018-10-11T05:24:01.041Z,90.10
2018-10-11T05:26:28.607Z,90.20
2018-10-11T05:28:56.132Z,90.20
2018-10-11T05:31:23.693Z,90.30
2018-10-11T05:33:52.768Z,90.30
2018-10-11T05:36:20.287Z,90.30
2018-10-11T05:38:47.846Z,90.20
2018-10-11T05:41:15.400Z,90.00
2018-10-11T05:43:42.930Z,89.80
2018-10-11T05:46:15.487Z,89.70
2018-10-11T05:48:43.010Z,89.60
2018-10-11T05:51:10.560Z,89.40
2018-10-11T05:53:38.091Z,89.50
2018-10-11T05:56:05.859Z,89.30
2018-10-11T05:58:33.391Z,89.20
2018-10-11T06:01:00.915Z,89.10
2018-10-11T06:03:28.435Z,89.20
2018-10-11T06:05:55.963Z,89.20
2018-10-11T06:08:23.474Z,89.30
2018-10-11T06:10:51.010Z,89.30
2018-10-11T06:13:18.521Z,89.50
2018-10-11T06:15:46.046Z,89.20
2018-10-11T06:18:13.561Z,89.30
2018-10-11T06:20:41.506Z,89.10
2018-10-11T06:23:09.155Z,89.10
2018-10-11T06:25:36.692Z,89.70
2018-10-11T06:28:04.351Z,89.10
2018-10-11T06:30:33.493Z,88.90
2018-10-11T06:33:01.016Z,88.50
2018-10-11T06:35:28.546Z,88.30
2018-10-11T06:37:56.171Z,88.10
2018-10-11T06:40:23.714Z,87.70
2018-10-11T06:42:51.722Z,87.50
2018-10-11T06:45:19.279Z,87.30
2018-10-11T06:47:50.219Z,87.00
2018-10-11T06:50:17.809Z,87.00
2018-10-11T06:52:45.358Z,86.90
2018-10-11T06:55:12.895Z,86.60
2018-10-11T06:57:40.426Z,86.40
2018-10-11T07:00:07.946Z,86.10
2018-10-11T07:02:35.491Z,85.80
2018-10-11T07:05:03.032Z,85.50
2018-10-11T07:07:30.598Z,85.30
2018-10-11T07:09:58.133Z,84.80
2018-10-11T07:12:25.670Z,84.40
2018-10-11T07:14:53.195Z,84.80
2018-10-11T07:17:20.719Z,83.60
2018-10-11T07:19:48.258Z,83.20
2018-10-11T07:22:15.790Z,82.90
2018-10-11T07:24:43.332Z,82.70
2018-10-11T07:27:10.877Z,82.30
2018-10-11T07:29:38.394Z,81.70
2018-10-11T07:32:05.915Z,81.40
2018-10-11T07:34:33.459Z,80.80
2018-10-11T07:37:00.970Z,80.50
2018-10-11T07:39:28.486Z,80.30
2018-10-11T07:41:56.036Z,79.80
2018-10-11T07:44:23.559Z,79.20
2018-10-11T07:46:51.075Z,78.70
2018-10-11T07:49:18.583Z,78.00
2018-10-11T07:51:46.110Z,77.60
2018-10-11T07:54:13.626Z,77.10
2018-10-11T07:56:41.139Z,76.70
2018-10-11T07:59:08.652Z,76.40
2018-10-11T08:01:36.215Z,76.00
2018-10-11T08:04:03.667Z,75.20
2018-10-11T08:06:31.180Z,74.70
2018-10-11T08:08:58.767Z,74.10
2018-10-11T08:11:26.338Z,73.30
2018-10-11T08:13:54.129Z,72.60
2018-10-11T08:16:21.874Z,71.70
2018-10-11T08:18:49.344Z,71.40
2018-10-11T08:21:26.646Z,70.40
2018-10-11T08:23:54.095Z,70.90
2018-10-11T08:26:21.906Z,70.40
2018-10-11T08:28:49.234Z,70.10
2018-10-11T08:31:16.786Z,69.60
2018-10-11T08:33:44.282Z,69.20
2018-10-11T08:36:11.781Z,69.10
2018-10-11T08:38:39.367Z,68.20
2018-10-11T08:41:06.827Z,67.50
2018-10-11T08:43:34.398Z,66.80
2018-10-11T08:46:01.906Z,66.40
2018-10-11T08:48:29.550Z,65.80
2018-10-11T08:50:57.136Z,65.60
2018-10-11T08:53:24.595Z,65.00
2018-10-11T08:55:52.144Z,64.90
2018-10-11T08:58:19.655Z,64.50
2018-10-11T09:00:47.162Z,64.00
2018-10-11T09:03:14.708Z,63.50
2018-10-11T09:05:52.581Z,63.30
2018-10-11T09:08:20.082Z,62.70
2018-10-11T09:10:47.658Z,61.70
2018-10-11T09:13:15.127Z,61.60
2018-10-11T09:15:42.630Z,61.20
2018-10-11T09:18:10.151Z,60.40
2018-10-11T09:20:37.653Z,60.40
2018-10-11T09:23:05.435Z,59.70
2018-10-11T09:25:32.944Z,59.20
2018-10-11T09:28:00.442Z,58.70
2018-10-11T09:30:28.020Z,58.40
2018-10-11T09:32:55.490Z,57.50
2018-10-11T09:35:22.990Z,57.20
2018-10-11T09:37:51.331Z,56.00
2018-10-11T09:40:18.840Z,55.30
2018-10-11T09:42:46.340Z,55.30
2018-10-11T09:45:13.863Z,54.40
2018-10-11T09:47:41.375Z,53.90
2018-10-11T09:50:08.886Z,53.50
2018-10-11T09:52:36.397Z,52.60
2018-10-11T09:55:04.102Z,51.50
2018-10-11T09:57:33.598Z,50.80
2018-10-11T10:00:02.396Z,50.50
2018-10-11T10:02:30.354Z,49.40
2018-10-11T10:04:59.073Z,49.00
2018-10-11T10:07:26.812Z,48.50
2018-10-11T10:09:54.385Z,48.30
2018-10-11T10:12:22.079Z,47.60
2018-10-11T10:14:50.016Z,47.20
2018-10-11T10:17:17.783Z,46.90
2018-10-11T10:19:45.630Z,46.20
2018-10-11T10:22:13.176Z,45.30
2018-10-11T10:24:40.686Z,44.50
2018-10-11T10:27:08.348Z,44.00
2018-10-11T10:29:35.981Z,43.30
2018-10-11T10:32:03.776Z,43.50
2018-10-11T10:34:31.401Z,43.00
2018-10-11T10:36:59.083Z,42.50
2018-10-11T10:39:26.600Z,41.30
2018-10-11T10:41:54.171Z,41.10
2018-10-11T10:44:21.728Z,40.60
2018-10-11T10:46:49.300Z,40.70
2018-10-11T10:49:16.837Z,40.90
2018-10-11T10:51:44.387Z,40.50
2018-10-11T10:54:17.570Z,40.20
2018-10-11T10:56:45.095Z,39.10
2018-10-11T10:59:12.602Z,38.80
2018-10-11T11:04:52.278Z,39.70
2018-10-11T11:07:19.829Z,39.20
2018-10-11T11:09:47.354Z,39.10
2018-10-11T11:12:14.939Z,39.10
2018-10-11T11:14:42.429Z,39.20
2018-10-11T11:17:09.955Z,38.30
2018-10-11T11:19:43.328Z,37.60
2018-10-11T11:22:10.852Z,37.50
2018-10-11T11:25:01.950Z,36.50
2018-10-11T11:27:29.623Z,36.00
2018-10-11T11:29:57.169Z,36.40
2018-10-11T11:32:24.703Z,36.50
2018-10-11T11:34:56.522Z,36.30
2018-10-11T11:37:24.038Z,36.10
2018-10-11T11:39:51.562Z,35.50
2018-10-11T11:42:19.077Z,34.90
2018-10-11T11:44:46.619Z,35.00
2018-10-11T11:47:27.929Z,35.10
2018-10-11T11:49:55.451Z,34.80
2018-10-11T11:52:22.961Z,34.70
2018-10-11T11:54:50.495Z,34.80
2018-10-11T11:57:17.999Z,33.60
2018-10-11T11:59:45.498Z,33.60
2018-10-11T12:02:13.070Z,33.70
2018-10-11T12:04:40.550Z,33.50
2018-10-11T12:07:08.074Z,33.80
2018-10-11T12:09:35.626Z,33.60
2018-10-11T12:12:03.148Z,33.80
2018-10-11T12:14:30.679Z,33.70
2018-10-11T12:16:58.210Z,33.70
2018-10-11T12:19:25.734Z,33.30
2018-10-11T12:21:53.279Z,33.50
2018-10-11T12:24:20.758Z,33.60
2018-10-11T12:26:48.290Z,33.50
2018-10-11T12:29:15.791Z,32.90
2018-10-11T12:31:43.317Z,33.10
2018-10-11T12:34:10.835Z,33.20
2018-10-11T12:36:38.494Z,33.40
2018-10-11T12:39:07.295Z,33.60
2018-10-11T12:41:34.810Z,33.80
2018-10-11T12:44:02.342Z,34.70
2018-10-11T12:46:34.751Z,34.40
2018-10-11T12:48:57.387Z,34.70
2018-10-11T12:51:24.913Z,35.10
2018-10-11T12:53:52.460Z,35.20
2018-10-11T12:56:20.008Z,35.30
2018-10-11T12:58:47.511Z,35.70
2018-10-11T13:01:17.270Z,35.90
2018-10-11T13:03:42.568Z,35.90
2018-10-11T13:06:31.546Z,35.80
2018-10-11T13:08:59.103Z,36.30
2018-10-11T13:11:26.615Z,36.40
2018-10-11T13:13:54.137Z,36.80
2018-10-11T13:16:21.650Z,36.80
2018-10-11T13:18:49.142Z,36.50
2018-10-11T13:21:16.667Z,36.30
2018-10-11T13:23:44.185Z,36.10
2018-10-11T13:26:11.684Z,36.00
2018-10-11T13:28:39.235Z,35.90
2018-10-11T13:31:06.784Z,35.90
2018-10-11T13:33:34.279Z,36.10
2018-10-11T13:36:01.794Z,36.00
2018-10-11T13:38:29.347Z,35.50
2018-10-11T13:41:00.988Z,35.30
2018-10-11T13:43:24.371Z,35.30
2018-10-11T13:45:54.559Z,34.90
2018-10-11T13:48:19.411Z,35.00
2018-10-11T13:50:46.934Z,34.60
2018-10-11T13:53:18.368Z,34.80
2018-10-11T13:55:48.706Z,34.90
2018-10-11T13:58:11.623Z,34.60
2018-10-11T14:00:39.131Z,34.50
2018-10-11T14:03:07.177Z,34.70
2018-10-11T14:05:34.680Z,34.70
2018-10-11T14:08:02.169Z,35.20
2018-10-11T14:10:29.721Z,34.70
2018-10-11T14:12:57.183Z,34.50
2018-10-11T14:15:24.687Z,34.60
2018-10-11T14:17:52.264Z,34.70
2018-10-11T14:20:19.726Z,34.90
2018-10-11T14:22:47.224Z,34.70
2018-10-11T14:25:14.745Z,35.10
2018-10-11T14:27:42.250Z,34.90
2018-10-11T14:30:09.770Z,34.90
2018-10-11T14:32:37.266Z,34.90
2018-10-11T14:35:04.826Z,35.00
2018-10-11T14:37:32.604Z,34.90
2018-10-11T14:40:00.103Z,34.90
2018-10-11T14:42:27.602Z,35.80
2018-10-11T14:44:55.152Z,35.70
2018-10-11T14:47:22.679Z,36.10
2018-10-11T14:49:50.196Z,36.30
2018-10-11T14:52:17.740Z,36.80
2018-10-11T14:54:45.278Z,37.20
2018-10-11T14:57:12.854Z,37.20
2018-10-11T14:59:40.438Z,37.50
2018-10-11T15:02:07.893Z,37.90
2018-10-11T15:04:35.414Z,38.10
2018-10-11T15:07:02.942Z,39.20
2018-10-11T15:09:30.468Z,38.80
2018-10-11T15:11:58.025Z,39.10
2018-10-11T15:14:25.982Z,39.50
2018-10-11T15:16:54.062Z,39.70
2018-10-11T15:19:21.570Z,39.60
2018-10-11T15:21:49.100Z,39.80
2018-10-11T15:24:16.628Z,40.10
2018-10-11T15:26:44.150Z,40.50
2018-10-11T15:29:11.688Z,40.70
2018-10-11T15:31:39.218Z,41.00
2018-10-11T15:34:06.766Z,41.40
2018-10-11T15:36:34.273Z,41.60
2018-10-11T15:39:01.782Z,41.80
2018-10-11T15:41:29.310Z,41.90
2018-10-11T15:43:56.843Z,42.00
2018-10-11T15:46:24.352Z,42.60
2018-10-11T15:48:51.880Z,43.00
2018-10-11T15:51:19.397Z,43.10
2018-10-11T15:53:46.915Z,43.40
2018-10-11T15:56:14.447Z,43.70
2018-10-11T15:58:41.964Z,44.10
2018-10-11T16:01:09.507Z,45.30
2018-10-11T16:03:37.040Z,45.00
2018-10-11T16:06:04.558Z,45.50
2018-10-11T16:08:32.079Z,46.10
2018-10-11T16:10:59.607Z,46.80
2018-10-11T16:13:27.115Z,46.80
2018-10-11T16:15:54.633Z,47.40
2018-10-11T16:18:22.148Z,47.80
2018-10-11T16:20:49.679Z,48.20
2018-10-11T16:23:17.185Z,48.40
2018-10-11T16:25:44.707Z,48.50
2018-10-11T16:28:12.223Z,48.50
2018-10-11T16:30:39.762Z,48.50
2018-10-11T16:33:07.294Z,48.90
2018-10-11T16:35:34.798Z,49.30
2018-10-11T16:38:02.350Z,49.70
2018-10-11T16:40:29.912Z,50.20
2018-10-11T16:42:57.428Z,50.80
2018-10-11T16:45:24.976Z,51.10
2018-10-11T16:47:52.503Z,51.20
2018-10-11T16:50:20.119Z,51.50
2018-10-11T16:52:47.635Z,51.80
2018-10-11T16:55:15.153Z,51.90
2018-10-11T16:57:42.666Z,52.20
2018-10-11T17:00:10.194Z,52.40
2018-10-11T17:02:37.715Z,52.70
2018-10-11T17:05:05.491Z,53.00
2018-10-11T17:07:33.026Z,53.30
2018-10-11T17:10:00.574Z,53.60
2018-10-11T17:12:31.586Z,53.90
2018-10-11T17:14:59.094Z,54.20
2018-10-11T17:17:26.594Z,54.60
2018-10-11T17:19:54.102Z,55.00
2018-10-11T17:22:21.606Z,55.10
2018-10-11T17:24:49.106Z,55.40
2018-10-11T17:27:16.634Z,55.80
2018-10-11T17:29:44.194Z,56.10
2018-10-11T17:32:29.614Z,56.50
2018-10-11T17:34:57.131Z,56.70
2018-10-11T17:37:24.663Z,56.90
2018-10-11T17:39:52.171Z,57.00
2018-10-11T17:42:19.692Z,57.30
2018-10-11T17:44:47.208Z,57.50
2018-10-11T17:47:14.719Z,57.90
2018-10-11T17:49:42.206Z,58.00
2018-10-11T17:52:09.706Z,57.60
2018-10-11T17:54:38.493Z,57.30
2018-10-11T17:57:06.003Z,57.30
2018-10-11T17:59:33.498Z,57.40
2018-10-11T18:02:01.009Z,57.50
2018-10-11T18:04:28.497Z,57.50
2018-10-11T18:06:56.006Z,57.50
2018-10-11T18:09:23.494Z,57.40
2018-10-11T18:11:50.994Z,57.30
2018-10-11T18:14:18.550Z,57.20
2018-10-11T18:16:46.043Z,57.40
2018-10-11T18:19:13.534Z,57.50
2018-10-11T18:21:41.147Z,57.60
2018-10-11T18:24:08.608Z,57.50
2018-10-11T18:26:36.251Z,57.50
2018-10-11T18:29:03.813Z,57.50
2018-10-11T18:31:31.267Z,57.20
2018-10-11T18:33:58.753Z,57.00
2018-10-11T18:36:26.260Z,57.00
2018-10-11T18:38:53.754Z,57.10
2018-10-11T18:41:24.795Z,57.30
2018-10-11T18:43:52.295Z,57.70
2018-10-11T18:46:19.819Z,58.10
2018-10-11T18:49:13.848Z,57.60
2018-10-11T18:51:41.358Z,57.60
2018-10-11T18:54:08.859Z,57.80
2018-10-11T18:56:36.370Z,58.50
2018-10-11T18:59:03.868Z,58.10
2018-10-11T19:04:59.527Z,58.00
2018-10-11T19:07:27.054Z,58.00
2018-10-11T19:09:54.551Z,58.20
2018-10-11T19:15:30.469Z,58.40
2018-10-11T19:17:57.976Z,58.50
2018-10-11T19:20:25.469Z,58.70
2018-10-11T19:22:58.251Z,58.80
2018-10-11T19:25:25.806Z,58.90
2018-10-11T19:27:53.391Z,59.10
2018-10-11T19:30:20.892Z,58.90
2018-10-11T19:32:48.399Z,59.60
2018-10-11T19:35:15.892Z,59.60
2018-10-11T19:37:43.418Z,59.00
2018-10-11T19:40:10.924Z,59.50
2018-10-11T19:42:38.430Z,59.30
2018-10-11T19:45:06.011Z,59.40
2018-10-11T19:47:33.538Z,59.60
2018-10-11T19:50:13.719Z,59.70
2018-10-11T19:52:41.250Z,59.80
2018-10-11T19:55:12.010Z,60.20
2018-10-11T19:57:39.562Z,60.60
2018-10-11T20:00:07.341Z,60.70
2018-10-11T20:02:34.889Z,61.10
2018-10-11T20:05:02.404Z,61.30
2018-10-11T20:07:29.927Z,61.50
2018-10-11T20:09:57.431Z,61.60
2018-10-11T20:12:24.954Z,62.00
2018-10-11T20:14:52.478Z,62.30
2018-10-11T20:17:20.096Z,62.50
2018-10-11T20:19:47.530Z,63.20
2018-10-11T20:22:20.418Z,62.80
2018-10-11T20:24:47.926Z,63.00
2018-10-11T20:27:15.395Z,63.50
2018-10-11T20:29:42.898Z,63.90
2018-10-11T20:32:10.415Z,64.50
2018-10-11T20:34:37.929Z,65.40
2018-10-11T20:37:05.780Z,66.10
2018-10-11T20:39:33.304Z,66.90
2018-10-11T20:42:00.865Z,67.40
2018-10-11T20:44:28.424Z,67.60
2018-10-11T20:46:55.975Z,69.40
2018-10-11T20:49:33.810Z,69.40
2018-10-11T20:52:01.341Z,70.60
2018-10-11T20:54:28.854Z,70.70
2018-10-11T20:56:56.378Z,71.30
2018-10-11T20:59:23.888Z,72.20
2018-10-11T21:01:51.578Z,73.30
2018-10-11T21:04:19.082Z,73.50
2018-10-11T21:06:46.598Z,73.90
2018-10-11T21:09:14.127Z,73.60
2018-10-11T21:11:41.649Z,74.00
2018-10-11T21:14:09.374Z,73.70
2018-10-11T21:16:37.033Z,74.00
2018-10-11T21:19:05.036Z,74.40
2018-10-11T21:21:32.658Z,74.40
2018-10-11T21:24:00.346Z,74.40
2018-10-11T21:26:28.100Z,74.70
2018-10-11T21:28:55.598Z,74.10
2018-10-11T21:31:23.117Z,73.90
2018-10-11T21:33:50.651Z,73.80
2018-10-11T21:36:18.207Z,74.40
2018-10-11T21:38:45.730Z,74.10
2018-10-11T21:41:13.243Z,74.20
2018-10-11T21:43:40.776Z,74.00
2018-10-11T21:46:08.411Z,73.90
2018-10-11T21:48:35.823Z,73.90
2018-10-11T21:51:03.346Z,73.90
2018-10-11T21:53:30.861Z,73.70
2018-10-11T21:55:58.370Z,74.50
2018-10-11T21:58:25.891Z,74.00
2018-10-11T22:00:59.261Z,73.50
2018-10-11T22:03:26.758Z,73.40
2018-10-11T22:05:54.279Z,73.40
2018-10-11T22:08:21.806Z,73.80
2018-10-11T22:10:49.333Z,73.60
2018-10-11T22:13:16.853Z,73.30
2018-10-11T22:15:44.374Z,73.40
2018-10-11T22:18:11.896Z,73.50
2018-10-11T22:20:39.463Z,73.90
2018-10-11T22:23:06.959Z,74.00
2018-10-11T22:25:34.467Z,74.40
2018-10-11T22:28:02.000Z,74.70
2018-10-11T22:30:29.521Z,74.70
2018-10-11T22:32:57.053Z,74.40
2018-10-11T22:35:24.575Z,74.70
2018-10-11T22:37:58.367Z,74.80
2018-10-11T22:40:26.157Z,74.80
2018-10-11T22:42:53.929Z,75.00
2018-10-11T22:45:21.687Z,75.10
2018-10-11T22:47:49.227Z,75.10
2018-10-11T22:50:16.734Z,75.30
2018-10-11T22:52:44.268Z,75.20
2018-10-11T22:55:11.810Z,75.50
2018-10-11T22:57:39.336Z,75.60
2018-10-11T23:00:08.174Z,75.90
2018-10-11T23:02:35.707Z,76.30
2018-10-11T23:05:03.422Z,76.10
2018-10-11T23:07:30.938Z,76.40
2018-10-11T23:09:58.463Z,76.70
2018-10-11T23:12:25.970Z,76.90
2018-10-11T23:14:53.535Z,77.30
2018-10-11T23:17:21.123Z,77.30
2018-10-11T23:19:48.647Z,77.40
2018-10-11T23:22:16.159Z,77.40
2018-10-11T23:24:43.679Z,77.30
2018-10-11T23:27:11.203Z,77.40
2018-10-11T23:29:38.750Z,78.20
2018-10-11T23:32:06.282Z,77.70
2018-10-11T23:34:33.826Z,77.70
2018-10-11T23:37:01.365Z,77.70
2018-10-11T23:39:28.898Z,78.00
2018-10-11T23:41:56.389Z,77.80
2018-10-11T23:44:23.892Z,77.80
2018-10-11T23:46:51.373Z,77.90
2018-10-11T23:49:18.886Z,78.00
2018-10-11T23:51:46.381Z,78.40
2018-10-11T23:54:13.894Z,78.60
2018-10-11T23:56:41.391Z,78.90
2018-10-11T23:59:08.887Z,78.80
